sensor_id;sensor_type;location;lat;lon;timestamp;temperature;humidity
14993;DHT22;7592;51.088;13.732;2022-08-16T00:00:38;19.40;99.90
14993;DHT22;7592;51.088;13.732;2022-08-16T00:05:31;19.30;99.90
14993;DHT22;7592;51.088;13.732;2022-08-16T00:10:28;19.10;99.90
14993;DHT22;7592;51.088;13.732;2022-08-16T00:15:46;19.00;99.90
14993;DHT22;7592;51.088;13.732;2022-08-16T00:20:46;19.00;99.90
14993;DHT22;7592;51.088;13.732;2022-08-16T00:25:42;18.90;99.90
14993;DHT22;7592;51.088;13.732;2022-08-16T00:30:54;18.80;99.90
14993;DHT22;7592;51.088;13.732;2022-08-16T00:35:50;18.80;99.90
14993;DHT22;7592;51.088;13.732;2022-08-16T00:40:46;18.80;99.90
14993;DHT22;7592;51.088;13.732;2022-08-16T00:46:19;18.70;99.90
14993;DHT22;7592;51.088;13.732;2022-08-16T00:51:26;18.60;99.90
14993;DHT22;7592;51.088;13.732;2022-08-16T00:56:25;18.50;99.90
14993;DHT22;7592;51.088;13.732;2022-08-16T01:01:38;18.50;99.90
14993;DHT22;7592;51.088;13.732;2022-08-16T01:06:31;18.50;99.90
14993;DHT22;7592;51.088;13.732;2022-08-16T01:11:41;18.50;99.90
14993;DHT22;7592;51.088;13.732;2022-08-16T01:16:47;18.50;99.90
14993;DHT22;7592;51.088;13.732;2022-08-16T01:22:06;18.50;99.90
14993;DHT22;7592;51.088;13.732;2022-08-16T01:27:32;18.40;99.90
14993;DHT22;7592;51.088;13.732;2022-08-16T01:32:31;18.20;99.90
14993;DHT22;7592;51.088;13.732;2022-08-16T01:37:51;18.10;99.90
14993;DHT22;7592;51.088;13.732;2022-08-16T01:42:50;18.10;99.90
14993;DHT22;7592;51.088;13.732;2022-08-16T01:47:49;18.20;99.90
14993;DHT22;7592;51.088;13.732;2022-08-16T01:52:45;18.20;99.90
14993;DHT22;7592;51.088;13.732;2022-08-16T01:57:45;18.00;99.90
14993;DHT22;7592;51.088;13.732;2022-08-16T02:02:47;18.10;99.90
14993;DHT22;7592;51.088;13.732;2022-08-16T02:07:45;18.00;99.90
14993;DHT22;7592;51.088;13.732;2022-08-16T02:12:43;18.00;99.90
14993;DHT22;7592;51.088;13.732;2022-08-16T02:17:44;17.90;99.90
14993;DHT22;7592;51.088;13.732;2022-08-16T02:22:38;17.80;99.90
14993;DHT22;7592;51.088;13.732;2022-08-16T02:27:31;17.90;99.90
14993;DHT22;7592;51.088;13.732;2022-08-16T02:32:23;17.90;99.90
14993;DHT22;7592;51.088;13.732;2022-08-16T02:37:36;17.80;99.90
14993;DHT22;7592;51.088;13.732;2022-08-16T02:42:45;17.70;99.90
14993;DHT22;7592;51.088;13.732;2022-08-16T02:47:41;17.60;99.90
14993;DHT22;7592;51.088;13.732;2022-08-16T02:52:54;17.60;99.90
14993;DHT22;7592;51.088;13.732;2022-08-16T02:57:46;17.50;99.90
14993;DHT22;7592;51.088;13.732;2022-08-16T03:02:45;17.60;99.90
14993;DHT22;7592;51.088;13.732;2022-08-16T03:07:47;17.50;99.90
14993;DHT22;7592;51.088;13.732;2022-08-16T03:12:43;17.50;99.90
14993;DHT22;7592;51.088;13.732;2022-08-16T03:17:52;17.50;99.90
14993;DHT22;7592;51.088;13.732;2022-08-16T03:22:48;17.50;99.90
14993;DHT22;7592;51.088;13.732;2022-08-16T03:27:41;17.50;99.90
14993;DHT22;7592;51.088;13.732;2022-08-16T03:32:39;17.50;99.90
14993;DHT22;7592;51.088;13.732;2022-08-16T03:37:35;17.40;99.90
14993;DHT22;7592;51.088;13.732;2022-08-16T03:42:52;17.40;99.90
14993;DHT22;7592;51.088;13.732;2022-08-16T03:48:08;17.40;99.90
14993;DHT22;7592;51.088;13.732;2022-08-16T03:53:07;17.40;99.90
14993;DHT22;7592;51.088;13.732;2022-08-16T03:58:00;17.30;99.90
14993;DHT22;7592;51.088;13.732;2022-08-16T04:02:56;17.40;99.90
14993;DHT22;7592;51.088;13.732;2022-08-16T04:07:49;17.50;99.90
14993;DHT22;7592;51.088;13.732;2022-08-16T04:12:44;17.50;99.90
14993;DHT22;7592;51.088;13.732;2022-08-16T04:17:47;17.60;99.90
14993;DHT22;7592;51.088;13.732;2022-08-16T04:22:40;17.60;99.90
14993;DHT22;7592;51.088;13.732;2022-08-16T04:27:41;17.80;99.90
14993;DHT22;7592;51.088;13.732;2022-08-16T04:32:47;17.80;99.90
14993;DHT22;7592;51.088;13.732;2022-08-16T04:37:44;18.00;99.90
14993;DHT22;7592;51.088;13.732;2022-08-16T04:42:43;18.00;99.90
14993;DHT22;7592;51.088;13.732;2022-08-16T04:47:39;18.10;99.90
14993;DHT22;7592;51.088;13.732;2022-08-16T04:52:42;18.50;99.90
14993;DHT22;7592;51.088;13.732;2022-08-16T04:57:36;19.30;99.90
14993;DHT22;7592;51.088;13.732;2022-08-16T05:02:29;19.90;99.90
14993;DHT22;7592;51.088;13.732;2022-08-16T05:07:35;19.70;99.90
14993;DHT22;7592;51.088;13.732;2022-08-16T05:12:48;19.50;99.90
14993;DHT22;7592;51.088;13.732;2022-08-16T05:17:43;19.50;99.90
14993;DHT22;7592;51.088;13.732;2022-08-16T05:22:38;19.70;99.90
14993;DHT22;7592;51.088;13.732;2022-08-16T05:27:39;19.90;99.90
14993;DHT22;7592;51.088;13.732;2022-08-16T05:32:37;20.70;99.90
14993;DHT22;7592;51.088;13.732;2022-08-16T05:37:40;24.90;99.90
14993;DHT22;7592;51.088;13.732;2022-08-16T05:42:36;27.00;99.90
14993;DHT22;7592;51.088;13.732;2022-08-16T05:47:29;28.10;99.90
14993;DHT22;7592;51.088;13.732;2022-08-16T05:52:22;28.90;99.90
14993;DHT22;7592;51.088;13.732;2022-08-16T05:57:20;32.40;99.90
14993;DHT22;7592;51.088;13.732;2022-08-16T06:02:15;32.50;99.90
14993;DHT22;7592;51.088;13.732;2022-08-16T06:07:10;30.80;99.90
14993;DHT22;7592;51.088;13.732;2022-08-16T06:12:28;32.10;99.90
14993;DHT22;7592;51.088;13.732;2022-08-16T06:17:26;31.60;99.90
14993;DHT22;7592;51.088;13.732;2022-08-16T06:22:39;28.50;99.90
14993;DHT22;7592;51.088;13.732;2022-08-16T06:27:35;27.00;99.90
14993;DHT22;7592;51.088;13.732;2022-08-16T06:32:32;28.20;99.90
14993;DHT22;7592;51.088;13.732;2022-08-16T06:37:34;34.00;99.90
14993;DHT22;7592;51.088;13.732;2022-08-16T06:42:32;38.20;93.50
14993;DHT22;7592;51.088;13.732;2022-08-16T06:47:53;40.70;74.20
14993;DHT22;7592;51.088;13.732;2022-08-16T06:52:50;42.10;60.30
14993;DHT22;7592;51.088;13.732;2022-08-16T06:57:51;43.50;59.30
14993;DHT22;7592;51.088;13.732;2022-08-16T07:02:45;44.90;52.60
14993;DHT22;7592;51.088;13.732;2022-08-16T07:07:45;45.30;51.20
14993;DHT22;7592;51.088;13.732;2022-08-16T07:12:43;45.70;50.00
14993;DHT22;7592;51.088;13.732;2022-08-16T07:17:57;46.20;50.10
14993;DHT22;7592;51.088;13.732;2022-08-16T07:22:53;46.30;48.00
14993;DHT22;7592;51.088;13.732;2022-08-16T07:28:04;46.10;50.10
14993;DHT22;7592;51.088;13.732;2022-08-16T07:33:03;45.70;50.70
14993;DHT22;7592;51.088;13.732;2022-08-16T07:37:59;44.50;48.70
14993;DHT22;7592;51.088;13.732;2022-08-16T07:43:05;45.30;48.90
14993;DHT22;7592;51.088;13.732;2022-08-16T07:47:59;43.10;52.70
14993;DHT22;7592;51.088;13.732;2022-08-16T07:53:05;44.30;50.40
14993;DHT22;7592;51.088;13.732;2022-08-16T07:57:59;45.30;51.30
14993;DHT22;7592;51.088;13.732;2022-08-16T08:02:58;47.40;47.50
14993;DHT22;7592;51.088;13.732;2022-08-16T08:07:54;47.10;46.60
14993;DHT22;7592;51.088;13.732;2022-08-16T08:12:51;47.70;44.60
14993;DHT22;7592;51.088;13.732;2022-08-16T08:17:46;47.20;46.30
14993;DHT22;7592;51.088;13.732;2022-08-16T08:22:48;48.00;45.40
14993;DHT22;7592;51.088;13.732;2022-08-16T08:27:41;47.60;45.00
14993;DHT22;7592;51.088;13.732;2022-08-16T08:32:35;47.80;44.90
14993;DHT22;7592;51.088;13.732;2022-08-16T08:37:48;47.50;44.30
14993;DHT22;7592;51.088;13.732;2022-08-16T08:42:48;47.10;44.60
14993;DHT22;7592;51.088;13.732;2022-08-16T08:47:49;48.20;42.40
14993;DHT22;7592;51.088;13.732;2022-08-16T08:52:52;47.20;43.30
14993;DHT22;7592;51.088;13.732;2022-08-16T08:57:48;48.20;42.70
14993;DHT22;7592;51.088;13.732;2022-08-16T09:02:59;48.80;42.20
14993;DHT22;7592;51.088;13.732;2022-08-16T09:07:59;47.90;41.70
14993;DHT22;7592;51.088;13.732;2022-08-16T09:13:07;46.40;43.30
14993;DHT22;7592;51.088;13.732;2022-08-16T09:18:10;46.30;43.00
14993;DHT22;7592;51.088;13.732;2022-08-16T09:23:19;44.00;44.60
14993;DHT22;7592;51.088;13.732;2022-08-16T09:28:15;44.40;43.70
14993;DHT22;7592;51.088;13.732;2022-08-16T09:33:38;45.50;43.00
14993;DHT22;7592;51.088;13.732;2022-08-16T09:38:31;45.90;42.50
14993;DHT22;7592;51.088;13.732;2022-08-16T09:43:23;46.90;41.60
14993;DHT22;7592;51.088;13.732;2022-08-16T09:48:37;46.40;42.30
14993;DHT22;7592;51.088;13.732;2022-08-16T09:53:42;48.80;40.60
14993;DHT22;7592;51.088;13.732;2022-08-16T09:58:44;49.30;39.90
14993;DHT22;7592;51.088;13.732;2022-08-16T10:03:57;48.80;40.60
14993;DHT22;7592;51.088;13.732;2022-08-16T10:08:53;49.00;40.50
14993;DHT22;7592;51.088;13.732;2022-08-16T10:13:57;50.10;38.40
14993;DHT22;7592;51.088;13.732;2022-08-16T10:18:50;50.30;39.00
14993;DHT22;7592;51.088;13.732;2022-08-16T10:24:00;50.60;37.70
14993;DHT22;7592;51.088;13.732;2022-08-16T10:28:53;49.30;37.10
14993;DHT22;7592;51.088;13.732;2022-08-16T10:33:45;47.50;39.20
14993;DHT22;7592;51.088;13.732;2022-08-16T10:38:40;46.60;39.00
14993;DHT22;7592;51.088;13.732;2022-08-16T12:42:27;32.20;54.50
14993;DHT22;7592;51.088;13.732;2022-08-16T12:47:43;32.40;55.10
14993;DHT22;7592;51.088;13.732;2022-08-16T12:53:14;32.50;54.40
14993;DHT22;7592;51.088;13.732;2022-08-16T12:58:07;32.70;55.40
14993;DHT22;7592;51.088;13.732;2022-08-16T13:03:20;32.80;53.80
14993;DHT22;7592;51.088;13.732;2022-08-16T13:08:19;32.50;54.40
14993;DHT22;7592;51.088;13.732;2022-08-16T13:13:24;32.30;55.50
14993;DHT22;7592;51.088;13.732;2022-08-16T13:18:17;32.60;54.00
14993;DHT22;7592;51.088;13.732;2022-08-16T13:23:18;32.70;54.20
14993;DHT22;7592;51.088;13.732;2022-08-16T13:28:12;32.80;54.40
14993;DHT22;7592;51.088;13.732;2022-08-16T13:33:15;32.70;54.40
14993;DHT22;7592;51.088;13.732;2022-08-16T13:38:20;33.00;54.60
14993;DHT22;7592;51.088;13.732;2022-08-16T13:43:16;32.90;54.50
14993;DHT22;7592;51.088;13.732;2022-08-16T13:48:10;32.80;54.20
14993;DHT22;7592;51.088;13.732;2022-08-16T13:53:16;32.80;54.20
14993;DHT22;7592;51.088;13.732;2022-08-16T13:58:08;32.70;54.40
14993;DHT22;7592;51.088;13.732;2022-08-16T14:03:21;32.80;55.30
14993;DHT22;7592;51.088;13.732;2022-08-16T14:08:14;32.80;53.40
14993;DHT22;7592;51.088;13.732;2022-08-16T14:13:08;32.90;55.10
14993;DHT22;7592;51.088;13.732;2022-08-16T14:18:11;32.90;54.90
14993;DHT22;7592;51.088;13.732;2022-08-16T14:23:11;33.00;54.00
14993;DHT22;7592;51.088;13.732;2022-08-16T14:28:04;32.90;53.90
14993;DHT22;7592;51.088;13.732;2022-08-16T14:33:00;32.60;54.20
14993;DHT22;7592;51.088;13.732;2022-08-16T14:37:58;32.50;54.80
14993;DHT22;7592;51.088;13.732;2022-08-16T14:42:52;32.40;54.40
14993;DHT22;7592;51.088;13.732;2022-08-16T14:47:47;32.10;54.30
14993;DHT22;7592;51.088;13.732;2022-08-16T14:52:45;32.20;54.80
14993;DHT22;7592;51.088;13.732;2022-08-16T14:57:47;32.50;55.30
14993;DHT22;7592;51.088;13.732;2022-08-16T15:02:50;32.60;54.70
14993;DHT22;7592;51.088;13.732;2022-08-16T15:07:47;32.60;54.90
14993;DHT22;7592;51.088;13.732;2022-08-16T15:12:43;32.40;55.10
14993;DHT22;7592;51.088;13.732;2022-08-16T15:17:40;32.30;55.60
14993;DHT22;7592;51.088;13.732;2022-08-16T15:22:48;32.20;55.60
14993;DHT22;7592;51.088;13.732;2022-08-16T15:27:43;32.20;55.70
14993;DHT22;7592;51.088;13.732;2022-08-16T15:32:46;32.20;56.20
14993;DHT22;7592;51.088;13.732;2022-08-16T15:37:41;32.00;55.60
14993;DHT22;7592;51.088;13.732;2022-08-16T15:42:35;32.00;56.50
14993;DHT22;7592;51.088;13.732;2022-08-16T15:47:27;31.80;56.30
14993;DHT22;7592;51.088;13.732;2022-08-16T15:52:24;31.70;56.20
14993;DHT22;7592;51.088;13.732;2022-08-16T15:57:26;31.40;56.50
14993;DHT22;7592;51.088;13.732;2022-08-16T16:02:22;31.10;57.40
14993;DHT22;7592;51.088;13.732;2022-08-16T16:07:23;31.10;57.90
14993;DHT22;7592;51.088;13.732;2022-08-16T16:12:15;30.90;58.00
14993;DHT22;7592;51.088;13.732;2022-08-16T16:17:28;30.60;58.60
14993;DHT22;7592;51.088;13.732;2022-08-16T16:22:20;30.50;58.60
14993;DHT22;7592;51.088;13.732;2022-08-16T16:27:16;30.60;59.00
14993;DHT22;7592;51.088;13.732;2022-08-16T16:32:10;30.50;59.90
14993;DHT22;7592;51.088;13.732;2022-08-16T16:37:03;30.50;59.60
14993;DHT22;7592;51.088;13.732;2022-08-16T16:42:02;30.40;60.40
14993;DHT22;7592;51.088;13.732;2022-08-16T16:46:55;30.40;60.00
14993;DHT22;7592;51.088;13.732;2022-08-16T16:51:48;30.30;59.80
14993;DHT22;7592;51.088;13.732;2022-08-16T16:56:42;30.10;59.60
14993;DHT22;7592;51.088;13.732;2022-08-16T17:01:43;30.10;60.40
14993;DHT22;7592;51.088;13.732;2022-08-16T17:06:56;30.00;60.80
14993;DHT22;7592;51.088;13.732;2022-08-16T17:11:49;29.80;61.60
14993;DHT22;7592;51.088;13.732;2022-08-16T17:16:46;29.70;61.60
14993;DHT22;7592;51.088;13.732;2022-08-16T17:21:39;29.50;62.20
14993;DHT22;7592;51.088;13.732;2022-08-16T17:26:33;29.40;62.20
14993;DHT22;7592;51.088;13.732;2022-08-16T17:31:28;29.20;63.50
14993;DHT22;7592;51.088;13.732;2022-08-16T17:36:29;29.00;64.60
14993;DHT22;7592;51.088;13.732;2022-08-16T17:41:27;28.80;65.10
14993;DHT22;7592;51.088;13.732;2022-08-16T17:46:20;28.60;66.00
14993;DHT22;7592;51.088;13.732;2022-08-16T17:51:32;28.30;66.80
14993;DHT22;7592;51.088;13.732;2022-08-16T17:56:25;28.00;68.30
14993;DHT22;7592;51.088;13.732;2022-08-16T18:01:20;27.80;69.40
14993;DHT22;7592;51.088;13.732;2022-08-16T18:06:16;27.50;70.50
14993;DHT22;7592;51.088;13.732;2022-08-16T18:11:10;27.40;71.60
14993;DHT22;7592;51.088;13.732;2022-08-16T18:16:05;27.20;73.50
14993;DHT22;7592;51.088;13.732;2022-08-16T18:20:58;27.00;74.60
14993;DHT22;7592;51.088;13.732;2022-08-16T18:26:09;26.90;76.20
14993;DHT22;7592;51.088;13.732;2022-08-16T18:31:02;26.70;77.60
14993;DHT22;7592;51.088;13.732;2022-08-16T18:35:56;26.60;80.70
14993;DHT22;7592;51.088;13.732;2022-08-16T18:40:49;26.60;80.30
14993;DHT22;7592;51.088;13.732;2022-08-16T18:45:45;26.50;82.30
14993;DHT22;7592;51.088;13.732;2022-08-16T18:50:40;26.40;84.70
14993;DHT22;7592;51.088;13.732;2022-08-16T18:55:55;26.40;86.00
14993;DHT22;7592;51.088;13.732;2022-08-16T19:00:48;26.50;89.00
14993;DHT22;7592;51.088;13.732;2022-08-16T19:05:50;26.40;91.00
14993;DHT22;7592;51.088;13.732;2022-08-16T19:10:47;26.50;92.90
14993;DHT22;7592;51.088;13.732;2022-08-16T19:15:41;26.50;93.40
14993;DHT22;7592;51.088;13.732;2022-08-16T19:20:34;26.40;94.20
14993;DHT22;7592;51.088;13.732;2022-08-16T19:25:30;26.40;94.50
14993;DHT22;7592;51.088;13.732;2022-08-16T19:30:40;26.30;95.50
14993;DHT22;7592;51.088;13.732;2022-08-16T19:35:32;26.20;96.20
14993;DHT22;7592;51.088;13.732;2022-08-16T19:40:25;26.20;97.80
14993;DHT22;7592;51.088;13.732;2022-08-16T19:45:29;26.20;99.90
14993;DHT22;7592;51.088;13.732;2022-08-16T19:50:22;26.20;99.90
14993;DHT22;7592;51.088;13.732;2022-08-16T19:55:27;26.10;99.90
14993;DHT22;7592;51.088;13.732;2022-08-16T20:00:21;26.00;99.90
14993;DHT22;7592;51.088;13.732;2022-08-16T20:05:29;26.00;99.90
14993;DHT22;7592;51.088;13.732;2022-08-16T20:10:23;26.00;99.90
14993;DHT22;7592;51.088;13.732;2022-08-16T20:15:26;26.00;99.90
14993;DHT22;7592;51.088;13.732;2022-08-16T20:20:21;26.00;99.90
14993;DHT22;7592;51.088;13.732;2022-08-16T20:25:21;25.90;99.90
14993;DHT22;7592;51.088;13.732;2022-08-16T20:30:19;25.80;99.90
14993;DHT22;7592;51.088;13.732;2022-08-16T20:35:14;25.70;99.90
14993;DHT22;7592;51.088;13.732;2022-08-16T20:40:15;25.70;99.90
14993;DHT22;7592;51.088;13.732;2022-08-16T20:45:26;25.70;99.90
14993;DHT22;7592;51.088;13.732;2022-08-16T20:50:19;25.60;99.90
14993;DHT22;7592;51.088;13.732;2022-08-16T20:55:12;25.60;99.90
14993;DHT22;7592;51.088;13.732;2022-08-16T21:00:05;25.50;99.90
14993;DHT22;7592;51.088;13.732;2022-08-16T21:05:02;25.40;99.90
14993;DHT22;7592;51.088;13.732;2022-08-16T21:09:55;25.40;99.90
14993;DHT22;7592;51.088;13.732;2022-08-16T21:14:48;25.30;99.90
14993;DHT22;7592;51.088;13.732;2022-08-16T21:19:42;25.30;99.90
14993;DHT22;7592;51.088;13.732;2022-08-16T21:24:35;25.10;99.90
14993;DHT22;7592;51.088;13.732;2022-08-16T21:29:28;25.10;99.90
14993;DHT22;7592;51.088;13.732;2022-08-16T21:34:30;25.00;99.90
14993;DHT22;7592;51.088;13.732;2022-08-16T21:39:23;25.10;99.90
14993;DHT22;7592;51.088;13.732;2022-08-16T21:44:15;25.10;99.90
14993;DHT22;7592;51.088;13.732;2022-08-16T21:49:07;25.30;99.90
14993;DHT22;7592;51.088;13.732;2022-08-16T21:54:00;25.20;99.90
14993;DHT22;7592;51.088;13.732;2022-08-16T21:58:53;25.10;99.90
14993;DHT22;7592;51.088;13.732;2022-08-16T22:03:45;24.90;99.90
14993;DHT22;7592;51.088;13.732;2022-08-16T22:08:37;24.80;99.90
14993;DHT22;7592;51.088;13.732;2022-08-16T22:13:41;24.80;99.90
14993;DHT22;7592;51.088;13.732;2022-08-16T22:18:49;24.80;99.90
14993;DHT22;7592;51.088;13.732;2022-08-16T22:23:43;24.70;99.90
14993;DHT22;7592;51.088;13.732;2022-08-16T22:28:35;24.80;99.90
14993;DHT22;7592;51.088;13.732;2022-08-16T22:33:29;24.60;99.90
14993;DHT22;7592;51.088;13.732;2022-08-16T22:38:23;24.50;99.90
14993;DHT22;7592;51.088;13.732;2022-08-16T22:43:35;24.50;99.90
14993;DHT22;7592;51.088;13.732;2022-08-16T22:48:27;24.50;99.90
14993;DHT22;7592;51.088;13.732;2022-08-16T22:53:20;24.40;99.90
14993;DHT22;7592;51.088;13.732;2022-08-16T22:58:12;24.10;99.90
14993;DHT22;7592;51.088;13.732;2022-08-16T23:03:14;24.00;99.90
14993;DHT22;7592;51.088;13.732;2022-08-16T23:08:10;24.00;99.90
14993;DHT22;7592;51.088;13.732;2022-08-16T23:13:24;23.80;99.90
14993;DHT22;7592;51.088;13.732;2022-08-16T23:18:18;23.70;99.90
14993;DHT22;7592;51.088;13.732;2022-08-16T23:23:18;23.60;99.90
14993;DHT22;7592;51.088;13.732;2022-08-16T23:28:14;23.50;99.90
14993;DHT22;7592;51.088;13.732;2022-08-16T23:33:09;23.40;99.90
14993;DHT22;7592;51.088;13.732;2022-08-16T23:38:02;23.30;99.90
14993;DHT22;7592;51.088;13.732;2022-08-16T23:43:04;23.30;99.90
14993;DHT22;7592;51.088;13.732;2022-08-16T23:47:57;23.30;99.90
14993;DHT22;7592;51.088;13.732;2022-08-16T23:53:17;23.30;99.90
14993;DHT22;7592;51.088;13.732;2022-08-16T23:58:15;23.20;99.90
